sensor_id;sensor_type;location;lat;lon;timestamp;P1;durP1;ratioP1;P2;durP2;ratioP2
583;SDS011;27024;54.068;12.116;2023-11-19T00:00:08;11.43;;;6.32;;
583;SDS011;27024;54.068;12.116;2023-11-19T00:02:40;12.82;;;6.15;;
583;SDS011;27024;54.068;12.116;2023-11-19T00:05:08;11.15;;;5.93;;
583;SDS011;27024;54.068;12.116;2023-11-19T00:07:35;10.25;;;5.50;;
583;SDS011;27024;54.068;12.116;2023-11-19T00:10:03;10.20;;;5.70;;
583;SDS011;27024;54.068;12.116;2023-11-19T00:12:33;10.55;;;6.80;;
583;SDS011;27024;54.068;12.116;2023-11-19T00:15:00;12.57;;;6.05;;
583;SDS011;27024;54.068;12.116;2023-11-19T00:17:27;11.32;;;6.07;;
583;SDS011;27024;54.068;12.116;2023-11-19T00:19:54;12.82;;;6.00;;
583;SDS011;27024;54.068;12.116;2023-11-19T00:22:22;10.88;;;6.13;;
583;SDS011;27024;54.068;12.116;2023-11-19T00:24:49;9.80;;;4.65;;
583;SDS011;27024;54.068;12.116;2023-11-19T00:27:16;12.10;;;5.55;;
583;SDS011;27024;54.068;12.116;2023-11-19T00:29:44;10.35;;;5.60;;
583;SDS011;27024;54.068;12.116;2023-11-19T00:32:11;11.48;;;6.60;;
583;SDS011;27024;54.068;12.116;2023-11-19T00:34:38;8.68;;;4.60;;
583;SDS011;27024;54.068;12.116;2023-11-19T00:37:05;11.23;;;6.05;;
583;SDS011;27024;54.068;12.116;2023-11-19T00:39:33;10.50;;;5.95;;
583;SDS011;27024;54.068;12.116;2023-11-19T00:42:00;11.65;;;6.90;;
583;SDS011;27024;54.068;12.116;2023-11-19T00:44:27;11.00;;;5.82;;
583;SDS011;27024;54.068;12.116;2023-11-19T00:46:53;10.32;;;5.50;;
583;SDS011;27024;54.068;12.116;2023-11-19T00:49:20;12.10;;;7.07;;
583;SDS011;27024;54.068;12.116;2023-11-19T00:51:47;10.82;;;6.43;;
583;SDS011;27024;54.068;12.116;2023-11-19T00:54:15;12.07;;;6.32;;
583;SDS011;27024;54.068;12.116;2023-11-19T00:56:42;12.57;;;6.53;;
583;SDS011;27024;54.068;12.116;2023-11-19T00:59:09;10.60;;;5.93;;
583;SDS011;27024;54.068;12.116;2023-11-19T01:01:36;11.32;;;6.10;;
583;SDS011;27024;54.068;12.116;2023-11-19T01:04:03;12.55;;;7.00;;
583;SDS011;27024;54.068;12.116;2023-11-19T01:06:30;10.68;;;6.13;;
583;SDS011;27024;54.068;12.116;2023-11-19T01:08:57;12.30;;;6.18;;
583;SDS011;27024;54.068;12.116;2023-11-19T01:11:25;12.05;;;6.75;;
583;SDS011;27024;54.068;12.116;2023-11-19T01:13:52;12.05;;;5.60;;
583;SDS011;27024;54.068;12.116;2023-11-19T01:16:19;11.82;;;6.68;;
583;SDS011;27024;54.068;12.116;2023-11-19T01:18:47;12.60;;;6.70;;
583;SDS011;27024;54.068;12.116;2023-11-19T01:21:15;10.93;;;6.15;;
583;SDS011;27024;54.068;12.116;2023-11-19T01:23:42;9.18;;;5.53;;
583;SDS011;27024;54.068;12.116;2023-11-19T01:26:12;12.07;;;6.50;;
583;SDS011;27024;54.068;12.116;2023-11-19T01:28:40;11.20;;;5.97;;
583;SDS011;27024;54.068;12.116;2023-11-19T01:31:17;14.10;;;7.10;;
583;SDS011;27024;54.068;12.116;2023-11-19T01:33:45;12.25;;;6.95;;
583;SDS011;27024;54.068;12.116;2023-11-19T01:36:13;14.02;;;6.50;;
583;SDS011;27024;54.068;12.116;2023-11-19T01:38:41;10.45;;;6.47;;
583;SDS011;27024;54.068;12.116;2023-11-19T01:41:08;13.68;;;6.65;;
583;SDS011;27024;54.068;12.116;2023-11-19T01:43:36;13.63;;;6.60;;
583;SDS011;27024;54.068;12.116;2023-11-19T01:46:04;13.48;;;6.68;;
583;SDS011;27024;54.068;12.116;2023-11-19T01:48:33;12.93;;;7.00;;
583;SDS011;27024;54.068;12.116;2023-11-19T01:51:02;10.63;;;5.53;;
583;SDS011;27024;54.068;12.116;2023-11-19T01:53:30;11.27;;;7.10;;
583;SDS011;27024;54.068;12.116;2023-11-19T01:55:58;11.95;;;5.88;;
583;SDS011;27024;54.068;12.116;2023-11-19T01:58:26;10.60;;;5.50;;
583;SDS011;27024;54.068;12.116;2023-11-19T02:00:53;11.68;;;6.13;;
583;SDS011;27024;54.068;12.116;2023-11-19T02:03:20;12.02;;;6.82;;
583;SDS011;27024;54.068;12.116;2023-11-19T02:05:48;11.40;;;6.40;;
583;SDS011;27024;54.068;12.116;2023-11-19T02:08:17;10.60;;;6.03;;
583;SDS011;27024;54.068;12.116;2023-11-19T02:10:44;11.30;;;5.80;;
583;SDS011;27024;54.068;12.116;2023-11-19T02:13:11;11.10;;;6.18;;
583;SDS011;27024;54.068;12.116;2023-11-19T02:15:43;9.35;;;5.97;;
583;SDS011;27024;54.068;12.116;2023-11-19T02:18:44;11.68;;;6.53;;
583;SDS011;27024;54.068;12.116;2023-11-19T02:21:03;11.32;;;6.35;;
583;SDS011;27024;54.068;12.116;2023-11-19T02:23:31;13.25;;;6.32;;
583;SDS011;27024;54.068;12.116;2023-11-19T02:28:41;12.52;;;6.20;;
583;SDS011;27024;54.068;12.116;2023-11-19T02:31:08;11.30;;;6.18;;
583;SDS011;27024;54.068;12.116;2023-11-19T02:33:39;11.48;;;6.43;;
583;SDS011;27024;54.068;12.116;2023-11-19T02:36:07;13.70;;;6.25;;
583;SDS011;27024;54.068;12.116;2023-11-19T02:38:35;13.15;;;7.00;;
583;SDS011;27024;54.068;12.116;2023-11-19T02:41:06;11.15;;;6.55;;
583;SDS011;27024;54.068;12.116;2023-11-19T02:43:34;12.95;;;6.40;;
583;SDS011;27024;54.068;12.116;2023-11-19T02:46:02;11.48;;;5.43;;
583;SDS011;27024;54.068;12.116;2023-11-19T02:48:41;10.45;;;5.80;;
583;SDS011;27024;54.068;12.116;2023-11-19T02:51:09;12.07;;;6.32;;
583;SDS011;27024;54.068;12.116;2023-11-19T02:53:37;12.63;;;6.55;;
583;SDS011;27024;54.068;12.116;2023-11-19T02:56:06;12.35;;;6.75;;
583;SDS011;27024;54.068;12.116;2023-11-19T02:58:52;10.82;;;6.30;;
583;SDS011;27024;54.068;12.116;2023-11-19T03:01:23;10.48;;;5.35;;
583;SDS011;27024;54.068;12.116;2023-11-19T03:03:57;11.60;;;6.35;;
583;SDS011;27024;54.068;12.116;2023-11-19T03:06:26;12.27;;;6.50;;
583;SDS011;27024;54.068;12.116;2023-11-19T03:08:54;12.65;;;6.82;;
583;SDS011;27024;54.068;12.116;2023-11-19T03:11:22;11.07;;;6.75;;
583;SDS011;27024;54.068;12.116;2023-11-19T03:13:48;13.10;;;6.93;;
583;SDS011;27024;54.068;12.116;2023-11-19T03:16:15;13.25;;;6.57;;
583;SDS011;27024;54.068;12.116;2023-11-19T03:18:43;11.73;;;6.38;;
583;SDS011;27024;54.068;12.116;2023-11-19T03:21:10;14.35;;;7.82;;
583;SDS011;27024;54.068;12.116;2023-11-19T03:23:37;11.38;;;7.22;;
583;SDS011;27024;54.068;12.116;2023-11-19T03:26:06;13.80;;;7.20;;
583;SDS011;27024;54.068;12.116;2023-11-19T03:28:33;12.60;;;7.03;;
583;SDS011;27024;54.068;12.116;2023-11-19T03:31:00;12.57;;;7.35;;
583;SDS011;27024;54.068;12.116;2023-11-19T03:33:27;12.05;;;6.80;;
583;SDS011;27024;54.068;12.116;2023-11-19T03:35:56;13.68;;;7.00;;
583;SDS011;27024;54.068;12.116;2023-11-19T03:38:23;14.68;;;7.25;;
583;SDS011;27024;54.068;12.116;2023-11-19T03:40:51;12.55;;;7.50;;
583;SDS011;27024;54.068;12.116;2023-11-19T03:43:18;13.02;;;7.57;;
583;SDS011;27024;54.068;12.116;2023-11-19T03:45:48;13.38;;;7.72;;
583;SDS011;27024;54.068;12.116;2023-11-19T03:48:15;13.05;;;7.45;;
583;SDS011;27024;54.068;12.116;2023-11-19T03:50:45;13.95;;;7.63;;
583;SDS011;27024;54.068;12.116;2023-11-19T03:53:12;13.68;;;8.23;;
583;SDS011;27024;54.068;12.116;2023-11-19T03:55:40;13.55;;;6.72;;
583;SDS011;27024;54.068;12.116;2023-11-19T03:58:06;11.45;;;6.63;;
583;SDS011;27024;54.068;12.116;2023-11-19T04:00:33;12.77;;;7.53;;
583;SDS011;27024;54.068;12.116;2023-11-19T04:03:00;13.45;;;7.90;;
583;SDS011;27024;54.068;12.116;2023-11-19T04:05:27;13.93;;;7.28;;
583;SDS011;27024;54.068;12.116;2023-11-19T04:07:54;13.98;;;7.75;;
583;SDS011;27024;54.068;12.116;2023-11-19T04:10:21;11.70;;;6.57;;
583;SDS011;27024;54.068;12.116;2023-11-19T04:12:49;13.35;;;7.85;;
583;SDS011;27024;54.068;12.116;2023-11-19T04:15:16;14.13;;;7.78;;
583;SDS011;27024;54.068;12.116;2023-11-19T04:17:43;14.48;;;7.53;;
583;SDS011;27024;54.068;12.116;2023-11-19T04:20:11;13.73;;;7.80;;
583;SDS011;27024;54.068;12.116;2023-11-19T04:22:40;13.98;;;6.55;;
583;SDS011;27024;54.068;12.116;2023-11-19T04:25:07;14.38;;;8.10;;
583;SDS011;27024;54.068;12.116;2023-11-19T04:27:35;13.75;;;8.00;;
583;SDS011;27024;54.068;12.116;2023-11-19T04:30:01;12.15;;;7.60;;
583;SDS011;27024;54.068;12.116;2023-11-19T04:32:30;13.27;;;7.72;;
583;SDS011;27024;54.068;12.116;2023-11-19T04:34:56;12.88;;;6.80;;
583;SDS011;27024;54.068;12.116;2023-11-19T04:37:23;12.25;;;7.20;;
583;SDS011;27024;54.068;12.116;2023-11-19T04:39:51;12.20;;;7.22;;
583;SDS011;27024;54.068;12.116;2023-11-19T04:42:18;11.48;;;7.38;;
583;SDS011;27024;54.068;12.116;2023-11-19T04:44:46;12.48;;;6.70;;
583;SDS011;27024;54.068;12.116;2023-11-19T04:47:13;11.77;;;6.72;;
583;SDS011;27024;54.068;12.116;2023-11-19T04:49:40;11.95;;;6.10;;
583;SDS011;27024;54.068;12.116;2023-11-19T04:52:10;11.15;;;6.05;;
583;SDS011;27024;54.068;12.116;2023-11-19T04:54:42;10.85;;;6.03;;
583;SDS011;27024;54.068;12.116;2023-11-19T04:57:12;9.90;;;5.50;;
583;SDS011;27024;54.068;12.116;2023-11-19T04:59:39;9.95;;;5.93;;
583;SDS011;27024;54.068;12.116;2023-11-19T05:02:06;11.75;;;6.07;;
583;SDS011;27024;54.068;12.116;2023-11-19T05:04:35;10.55;;;6.03;;
583;SDS011;27024;54.068;12.116;2023-11-19T05:07:02;10.52;;;6.25;;
583;SDS011;27024;54.068;12.116;2023-11-19T05:09:29;10.55;;;6.22;;
583;SDS011;27024;54.068;12.116;2023-11-19T05:11:57;10.07;;;5.97;;
583;SDS011;27024;54.068;12.116;2023-11-19T05:14:24;9.20;;;5.10;;
583;SDS011;27024;54.068;12.116;2023-11-19T05:16:51;7.53;;;4.10;;
583;SDS011;27024;54.068;12.116;2023-11-19T05:19:18;6.20;;;3.70;;
583;SDS011;27024;54.068;12.116;2023-11-19T05:21:45;7.55;;;4.22;;
583;SDS011;27024;54.068;12.116;2023-11-19T05:24:12;9.98;;;5.00;;
583;SDS011;27024;54.068;12.116;2023-11-19T05:26:38;8.05;;;5.03;;
583;SDS011;27024;54.068;12.116;2023-11-19T05:29:05;6.97;;;4.68;;
583;SDS011;27024;54.068;12.116;2023-11-19T05:31:32;6.82;;;3.75;;
583;SDS011;27024;54.068;12.116;2023-11-19T05:34:03;7.57;;;4.30;;
583;SDS011;27024;54.068;12.116;2023-11-19T05:36:30;6.63;;;4.55;;
583;SDS011;27024;54.068;12.116;2023-11-19T05:38:57;7.68;;;4.35;;
583;SDS011;27024;54.068;12.116;2023-11-19T05:41:24;7.88;;;4.53;;
583;SDS011;27024;54.068;12.116;2023-11-19T05:43:51;7.15;;;3.67;;
583;SDS011;27024;54.068;12.116;2023-11-19T05:46:18;6.93;;;4.15;;
583;SDS011;27024;54.068;12.116;2023-11-19T05:48:47;6.82;;;3.95;;
583;SDS011;27024;54.068;12.116;2023-11-19T05:51:14;8.68;;;3.70;;
583;SDS011;27024;54.068;12.116;2023-11-19T05:53:42;6.05;;;3.30;;
583;SDS011;27024;54.068;12.116;2023-11-19T05:56:09;6.53;;;3.60;;
583;SDS011;27024;54.068;12.116;2023-11-19T05:58:36;7.20;;;4.13;;
583;SDS011;27024;54.068;12.116;2023-11-19T06:01:05;6.45;;;3.83;;
583;SDS011;27024;54.068;12.116;2023-11-19T06:03:34;6.55;;;3.33;;
583;SDS011;27024;54.068;12.116;2023-11-19T06:06:01;7.47;;;3.38;;
583;SDS011;27024;54.068;12.116;2023-11-19T06:08:28;5.80;;;3.42;;
583;SDS011;27024;54.068;12.116;2023-11-19T06:10:57;7.50;;;3.40;;
583;SDS011;27024;54.068;12.116;2023-11-19T06:13:24;5.32;;;3.13;;
583;SDS011;27024;54.068;12.116;2023-11-19T06:15:52;5.20;;;3.05;;
583;SDS011;27024;54.068;12.116;2023-11-19T06:18:19;5.35;;;3.50;;
583;SDS011;27024;54.068;12.116;2023-11-19T06:20:47;6.28;;;3.70;;
583;SDS011;27024;54.068;12.116;2023-11-19T06:23:14;5.05;;;2.85;;
583;SDS011;27024;54.068;12.116;2023-11-19T06:25:41;6.07;;;3.47;;
583;SDS011;27024;54.068;12.116;2023-11-19T06:28:08;5.60;;;3.17;;
583;SDS011;27024;54.068;12.116;2023-11-19T06:30:39;6.57;;;3.88;;
583;SDS011;27024;54.068;12.116;2023-11-19T06:33:09;6.85;;;3.80;;
583;SDS011;27024;54.068;12.116;2023-11-19T06:35:39;6.47;;;3.67;;
583;SDS011;27024;54.068;12.116;2023-11-19T06:38:06;6.65;;;3.40;;
583;SDS011;27024;54.068;12.116;2023-11-19T06:40:33;5.57;;;3.13;;
583;SDS011;27024;54.068;12.116;2023-11-19T06:43:01;5.65;;;3.50;;
583;SDS011;27024;54.068;12.116;2023-11-19T06:45:31;7.53;;;2.88;;
583;SDS011;27024;54.068;12.116;2023-11-19T06:48:00;5.40;;;3.13;;
583;SDS011;27024;54.068;12.116;2023-11-19T06:50:30;4.95;;;2.60;;
583;SDS011;27024;54.068;12.116;2023-11-19T06:53:00;6.22;;;2.78;;
583;SDS011;27024;54.068;12.116;2023-11-19T06:55:27;5.50;;;2.65;;
583;SDS011;27024;54.068;12.116;2023-11-19T06:57:54;4.88;;;2.60;;
583;SDS011;27024;54.068;12.116;2023-11-19T07:00:21;5.97;;;3.08;;
583;SDS011;27024;54.068;12.116;2023-11-19T07:02:48;5.38;;;2.90;;
583;SDS011;27024;54.068;12.116;2023-11-19T07:05:16;5.18;;;2.92;;
583;SDS011;27024;54.068;12.116;2023-11-19T07:07:43;5.88;;;3.50;;
583;SDS011;27024;54.068;12.116;2023-11-19T07:10:12;6.13;;;2.97;;
583;SDS011;27024;54.068;12.116;2023-11-19T07:12:39;6.00;;;3.33;;
583;SDS011;27024;54.068;12.116;2023-11-19T07:15:06;5.57;;;2.95;;
583;SDS011;27024;54.068;12.116;2023-11-19T07:17:33;6.85;;;3.70;;
583;SDS011;27024;54.068;12.116;2023-11-19T07:20:01;6.43;;;3.65;;
583;SDS011;27024;54.068;12.116;2023-11-19T07:22:28;5.63;;;2.88;;
583;SDS011;27024;54.068;12.116;2023-11-19T07:24:56;6.20;;;3.30;;
583;SDS011;27024;54.068;12.116;2023-11-19T07:27:23;6.07;;;3.40;;
583;SDS011;27024;54.068;12.116;2023-11-19T07:29:50;5.03;;;2.90;;
583;SDS011;27024;54.068;12.116;2023-11-19T07:32:18;7.10;;;3.63;;
583;SDS011;27024;54.068;12.116;2023-11-19T07:34:45;6.03;;;3.45;;
583;SDS011;27024;54.068;12.116;2023-11-19T07:37:12;6.43;;;3.53;;
583;SDS011;27024;54.068;12.116;2023-11-19T07:39:38;5.40;;;3.05;;
583;SDS011;27024;54.068;12.116;2023-11-19T07:42:08;5.20;;;2.88;;
583;SDS011;27024;54.068;12.116;2023-11-19T07:44:36;6.72;;;3.75;;
583;SDS011;27024;54.068;12.116;2023-11-19T07:47:03;6.25;;;2.95;;
583;SDS011;27024;54.068;12.116;2023-11-19T07:49:30;5.70;;;3.05;;
583;SDS011;27024;54.068;12.116;2023-11-19T07:51:57;6.75;;;4.07;;
583;SDS011;27024;54.068;12.116;2023-11-19T07:54:24;5.47;;;2.85;;
583;SDS011;27024;54.068;12.116;2023-11-19T07:56:51;4.93;;;3.03;;
583;SDS011;27024;54.068;12.116;2023-11-19T07:59:18;5.70;;;2.50;;
583;SDS011;27024;54.068;12.116;2023-11-19T08:01:45;4.35;;;2.40;;
583;SDS011;27024;54.068;12.116;2023-11-19T08:04:12;5.03;;;2.20;;
583;SDS011;27024;54.068;12.116;2023-11-19T08:06:39;4.18;;;2.58;;
583;SDS011;27024;54.068;12.116;2023-11-19T08:09:06;4.18;;;2.20;;
583;SDS011;27024;54.068;12.116;2023-11-19T08:11:33;3.80;;;2.17;;
583;SDS011;27024;54.068;12.116;2023-11-19T08:14:00;4.95;;;3.03;;
583;SDS011;27024;54.068;12.116;2023-11-19T08:16:27;3.58;;;1.88;;
583;SDS011;27024;54.068;12.116;2023-11-19T08:18:54;5.03;;;2.58;;
583;SDS011;27024;54.068;12.116;2023-11-19T08:21:21;3.70;;;2.00;;
583;SDS011;27024;54.068;12.116;2023-11-19T08:23:49;3.10;;;1.77;;
583;SDS011;27024;54.068;12.116;2023-11-19T08:26:19;3.88;;;1.80;;
583;SDS011;27024;54.068;12.116;2023-11-19T08:28:47;3.78;;;2.00;;
583;SDS011;27024;54.068;12.116;2023-11-19T08:31:14;5.50;;;2.20;;
583;SDS011;27024;54.068;12.116;2023-11-19T08:33:41;3.28;;;2.28;;
583;SDS011;27024;54.068;12.116;2023-11-19T08:36:08;3.60;;;2.15;;
583;SDS011;27024;54.068;12.116;2023-11-19T08:38:41;3.63;;;2.05;;
583;SDS011;27024;54.068;12.116;2023-11-19T08:41:08;4.40;;;2.28;;
583;SDS011;27024;54.068;12.116;2023-11-19T08:43:35;4.25;;;1.80;;
583;SDS011;27024;54.068;12.116;2023-11-19T08:46:02;3.50;;;1.67;;
583;SDS011;27024;54.068;12.116;2023-11-19T08:48:30;3.75;;;2.08;;
583;SDS011;27024;54.068;12.116;2023-11-19T08:50:57;3.28;;;1.80;;
583;SDS011;27024;54.068;12.116;2023-11-19T08:53:24;4.05;;;1.83;;
583;SDS011;27024;54.068;12.116;2023-11-19T08:55:51;4.32;;;2.00;;
583;SDS011;27024;54.068;12.116;2023-11-19T08:58:18;3.10;;;1.85;;
583;SDS011;27024;54.068;12.116;2023-11-19T09:00:45;5.25;;;1.83;;
583;SDS011;27024;54.068;12.116;2023-11-19T09:03:12;3.78;;;2.10;;
583;SDS011;27024;54.068;12.116;2023-11-19T09:05:39;3.60;;;1.90;;
583;SDS011;27024;54.068;12.116;2023-11-19T09:08:06;3.20;;;1.60;;
583;SDS011;27024;54.068;12.116;2023-11-19T09:10:33;3.05;;;1.88;;
583;SDS011;27024;54.068;12.116;2023-11-19T09:13:00;3.97;;;1.88;;
583;SDS011;27024;54.068;12.116;2023-11-19T09:15:27;3.88;;;1.70;;
583;SDS011;27024;54.068;12.116;2023-11-19T09:17:54;3.30;;;1.75;;
583;SDS011;27024;54.068;12.116;2023-11-19T09:20:21;3.15;;;1.63;;
583;SDS011;27024;54.068;12.116;2023-11-19T09:22:48;3.28;;;1.83;;
583;SDS011;27024;54.068;12.116;2023-11-19T09:25:15;2.80;;;1.63;;
583;SDS011;27024;54.068;12.116;2023-11-19T09:27:43;4.10;;;1.63;;
583;SDS011;27024;54.068;12.116;2023-11-19T09:30:11;4.70;;;1.90;;
583;SDS011;27024;54.068;12.116;2023-11-19T09:32:39;6.63;;;2.28;;
583;SDS011;27024;54.068;12.116;2023-11-19T09:35:07;3.30;;;1.52;;
583;SDS011;27024;54.068;12.116;2023-11-19T09:37:35;3.88;;;1.77;;
583;SDS011;27024;54.068;12.116;2023-11-19T09:40:02;2.25;;;1.15;;
583;SDS011;27024;54.068;12.116;2023-11-19T09:42:29;3.42;;;1.58;;
583;SDS011;27024;54.068;12.116;2023-11-19T09:45:02;6.05;;;2.58;;
583;SDS011;27024;54.068;12.116;2023-11-19T09:47:34;3.22;;;1.42;;
583;SDS011;27024;54.068;12.116;2023-11-19T09:50:01;5.00;;;2.47;;
583;SDS011;27024;54.068;12.116;2023-11-19T09:52:28;6.85;;;2.38;;
583;SDS011;27024;54.068;12.116;2023-11-19T09:54:54;5.57;;;2.35;;
583;SDS011;27024;54.068;12.116;2023-11-19T09:57:21;5.95;;;2.63;;
583;SDS011;27024;54.068;12.116;2023-11-19T09:59:49;4.43;;;2.30;;
583;SDS011;27024;54.068;12.116;2023-11-19T10:02:17;4.88;;;2.28;;
583;SDS011;27024;54.068;12.116;2023-11-19T10:04:45;4.45;;;2.28;;
583;SDS011;27024;54.068;12.116;2023-11-19T10:07:14;5.85;;;2.78;;
583;SDS011;27024;54.068;12.116;2023-11-19T10:09:41;6.07;;;2.92;;
583;SDS011;27024;54.068;12.116;2023-11-19T10:12:07;7.80;;;2.90;;
583;SDS011;27024;54.068;12.116;2023-11-19T10:14:34;5.15;;;3.03;;
583;SDS011;27024;54.068;12.116;2023-11-19T10:17:06;7.10;;;3.17;;
583;SDS011;27024;54.068;12.116;2023-11-19T10:19:34;6.55;;;3.30;;
583;SDS011;27024;54.068;12.116;2023-11-19T10:22:04;7.85;;;3.97;;
583;SDS011;27024;54.068;12.116;2023-11-19T10:24:32;8.13;;;3.75;;
583;SDS011;27024;54.068;12.116;2023-11-19T10:27:08;8.45;;;3.58;;
583;SDS011;27024;54.068;12.116;2023-11-19T10:29:36;7.55;;;3.45;;
583;SDS011;27024;54.068;12.116;2023-11-19T10:32:04;9.02;;;4.75;;
583;SDS011;27024;54.068;12.116;2023-11-19T10:34:51;8.90;;;4.60;;
583;SDS011;27024;54.068;12.116;2023-11-19T10:37:28;9.00;;;3.92;;
583;SDS011;27024;54.068;12.116;2023-11-19T10:39:59;14.93;;;4.25;;
583;SDS011;27024;54.068;12.116;2023-11-19T10:42:26;12.18;;;4.22;;
583;SDS011;27024;54.068;12.116;2023-11-19T10:44:53;12.02;;;4.32;;
583;SDS011;27024;54.068;12.116;2023-11-19T10:47:20;11.38;;;4.32;;
583;SDS011;27024;54.068;12.116;2023-11-19T10:49:52;13.60;;;4.65;;
583;SDS011;27024;54.068;12.116;2023-11-19T10:52:19;10.00;;;4.43;;
583;SDS011;27024;54.068;12.116;2023-11-19T10:54:50;15.55;;;5.82;;
583;SDS011;27024;54.068;12.116;2023-11-19T10:57:21;15.65;;;5.38;;
583;SDS011;27024;54.068;12.116;2023-11-19T10:59:55;16.77;;;5.78;;
583;SDS011;27024;54.068;12.116;2023-11-19T11:02:28;17.58;;;5.43;;
583;SDS011;27024;54.068;12.116;2023-11-19T11:05:01;13.95;;;5.13;;
583;SDS011;27024;54.068;12.116;2023-11-19T11:07:29;15.88;;;4.68;;
583;SDS011;27024;54.068;12.116;2023-11-19T11:10:07;14.40;;;5.65;;
583;SDS011;27024;54.068;12.116;2023-11-19T11:12:36;18.27;;;5.43;;
583;SDS011;27024;54.068;12.116;2023-11-19T11:15:08;17.75;;;5.78;;
583;SDS011;27024;54.068;12.116;2023-11-19T11:17:42;21.98;;;6.03;;
583;SDS011;27024;54.068;12.116;2023-11-19T11:20:11;17.90;;;6.07;;
583;SDS011;27024;54.068;12.116;2023-11-19T11:22:48;20.02;;;6.13;;
583;SDS011;27024;54.068;12.116;2023-11-19T11:28:33;17.45;;;6.32;;
583;SDS011;27024;54.068;12.116;2023-11-19T11:31:12;21.60;;;6.28;;
583;SDS011;27024;54.068;12.116;2023-11-19T11:39:57;19.05;;;5.55;;
583;SDS011;27024;54.068;12.116;2023-11-19T11:45:07;22.13;;;5.68;;
583;SDS011;27024;54.068;12.116;2023-11-19T11:50:09;22.13;;;6.07;;
583;SDS011;27024;54.068;12.116;2023-11-19T11:57:55;21.60;;;4.32;;
583;SDS011;27024;54.068;12.116;2023-11-19T12:00:22;23.90;;;4.63;;
583;SDS011;27024;54.068;12.116;2023-11-19T12:02:54;19.27;;;3.15;;
583;SDS011;27024;54.068;12.116;2023-11-19T12:05:22;18.23;;;2.63;;
583;SDS011;27024;54.068;12.116;2023-11-19T12:07:56;21.08;;;2.25;;
583;SDS011;27024;54.068;12.116;2023-11-19T12:10:31;17.33;;;2.47;;
583;SDS011;27024;54.068;12.116;2023-11-19T12:12:59;19.25;;;3.28;;
583;SDS011;27024;54.068;12.116;2023-11-19T12:15:27;24.58;;;2.65;;
583;SDS011;27024;54.068;12.116;2023-11-19T12:17:54;16.65;;;2.47;;
583;SDS011;27024;54.068;12.116;2023-11-19T12:20:23;19.73;;;2.60;;
583;SDS011;27024;54.068;12.116;2023-11-19T12:22:54;20.50;;;2.75;;
583;SDS011;27024;54.068;12.116;2023-11-19T12:25:21;17.20;;;3.30;;
583;SDS011;27024;54.068;12.116;2023-11-19T12:27:49;24.38;;;2.65;;
583;SDS011;27024;54.068;12.116;2023-11-19T12:30:17;17.58;;;2.33;;
583;SDS011;27024;54.068;12.116;2023-11-19T12:32:52;21.27;;;2.53;;
583;SDS011;27024;54.068;12.116;2023-11-19T12:35:23;15.82;;;1.70;;
583;SDS011;27024;54.068;12.116;2023-11-19T12:37:50;19.45;;;2.38;;
583;SDS011;27024;54.068;12.116;2023-11-19T12:40:21;20.73;;;2.15;;
583;SDS011;27024;54.068;12.116;2023-11-19T12:42:52;20.92;;;2.47;;
583;SDS011;27024;54.068;12.116;2023-11-19T12:45:22;19.58;;;2.47;;
583;SDS011;27024;54.068;12.116;2023-11-19T12:48:05;18.05;;;2.28;;
583;SDS011;27024;54.068;12.116;2023-11-19T12:53:26;19.25;;;2.65;;
583;SDS011;27024;54.068;12.116;2023-11-19T12:55:53;20.30;;;3.85;;
583;SDS011;27024;54.068;12.116;2023-11-19T12:58:29;26.23;;;3.08;;
583;SDS011;27024;54.068;12.116;2023-11-19T13:01:05;19.73;;;2.45;;
583;SDS011;27024;54.068;12.116;2023-11-19T13:06:06;19.30;;;2.83;;
583;SDS011;27024;54.068;12.116;2023-11-19T13:11:06;20.63;;;2.70;;
583;SDS011;27024;54.068;12.116;2023-11-19T13:13:54;13.50;;;2.00;;
583;SDS011;27024;54.068;12.116;2023-11-19T13:16:26;15.93;;;2.30;;
583;SDS011;27024;54.068;12.116;2023-11-19T13:18:54;20.15;;;2.70;;
583;SDS011;27024;54.068;12.116;2023-11-19T13:21:21;16.27;;;1.98;;
583;SDS011;27024;54.068;12.116;2023-11-19T13:23:48;16.38;;;1.85;;
583;SDS011;27024;54.068;12.116;2023-11-19T13:26:16;14.35;;;1.85;;
583;SDS011;27024;54.068;12.116;2023-11-19T13:28:43;16.38;;;3.08;;
583;SDS011;27024;54.068;12.116;2023-11-19T13:31:10;14.32;;;1.80;;
583;SDS011;27024;54.068;12.116;2023-11-19T13:33:37;13.35;;;2.30;;
583;SDS011;27024;54.068;12.116;2023-11-19T13:36:05;14.68;;;2.28;;
583;SDS011;27024;54.068;12.116;2023-11-19T13:38:34;13.43;;;1.77;;
583;SDS011;27024;54.068;12.116;2023-11-19T13:41:04;13.63;;;1.50;;
583;SDS011;27024;54.068;12.116;2023-11-19T13:43:32;14.45;;;2.30;;
583;SDS011;27024;54.068;12.116;2023-11-19T13:45:59;12.35;;;1.85;;
583;SDS011;27024;54.068;12.116;2023-11-19T13:48:26;10.98;;;2.08;;
583;SDS011;27024;54.068;12.116;2023-11-19T13:50:55;16.20;;;2.40;;
583;SDS011;27024;54.068;12.116;2023-11-19T13:53:22;15.57;;;2.67;;
583;SDS011;27024;54.068;12.116;2023-11-19T13:55:50;19.38;;;2.25;;
583;SDS011;27024;54.068;12.116;2023-11-19T13:58:17;15.73;;;1.67;;
583;SDS011;27024;54.068;12.116;2023-11-19T14:00:44;13.35;;;2.05;;
583;SDS011;27024;54.068;12.116;2023-11-19T14:03:11;12.07;;;1.73;;
583;SDS011;27024;54.068;12.116;2023-11-19T14:05:39;12.25;;;1.88;;
583;SDS011;27024;54.068;12.116;2023-11-19T14:08:08;16.98;;;2.33;;
583;SDS011;27024;54.068;12.116;2023-11-19T14:10:51;12.35;;;1.83;;
583;SDS011;27024;54.068;12.116;2023-11-19T14:13:18;14.93;;;2.60;;
583;SDS011;27024;54.068;12.116;2023-11-19T14:15:45;16.52;;;2.38;;
583;SDS011;27024;54.068;12.116;2023-11-19T14:18:15;18.02;;;2.70;;
583;SDS011;27024;54.068;12.116;2023-11-19T14:20:43;14.50;;;2.53;;
583;SDS011;27024;54.068;12.116;2023-11-19T14:23:13;19.90;;;2.38;;
583;SDS011;27024;54.068;12.116;2023-11-19T14:25:44;13.85;;;2.05;;
583;SDS011;27024;54.068;12.116;2023-11-19T14:28:10;18.77;;;2.75;;
583;SDS011;27024;54.068;12.116;2023-11-19T14:30:37;18.23;;;2.63;;
583;SDS011;27024;54.068;12.116;2023-11-19T14:33:05;19.80;;;2.13;;
583;SDS011;27024;54.068;12.116;2023-11-19T14:35:32;15.85;;;2.20;;
583;SDS011;27024;54.068;12.116;2023-11-19T14:38:00;18.75;;;2.08;;
583;SDS011;27024;54.068;12.116;2023-11-19T14:40:31;15.52;;;2.20;;
583;SDS011;27024;54.068;12.116;2023-11-19T14:43:01;18.63;;;2.58;;
583;SDS011;27024;54.068;12.116;2023-11-19T14:45:29;16.80;;;2.45;;
583;SDS011;27024;54.068;12.116;2023-11-19T14:48:07;24.45;;;2.85;;
583;SDS011;27024;54.068;12.116;2023-11-19T14:50:34;19.42;;;2.67;;
583;SDS011;27024;54.068;12.116;2023-11-19T14:53:01;22.35;;;3.13;;
583;SDS011;27024;54.068;12.116;2023-11-19T14:55:28;20.80;;;2.60;;
583;SDS011;27024;54.068;12.116;2023-11-19T14:57:55;22.38;;;2.70;;
583;SDS011;27024;54.068;12.116;2023-11-19T15:00:34;18.40;;;2.22;;
583;SDS011;27024;54.068;12.116;2023-11-19T15:03:01;18.70;;;2.20;;
583;SDS011;27024;54.068;12.116;2023-11-19T15:05:28;22.58;;;2.33;;
583;SDS011;27024;54.068;12.116;2023-11-19T15:07:57;17.55;;;2.08;;
583;SDS011;27024;54.068;12.116;2023-11-19T15:10:23;16.88;;;1.98;;
583;SDS011;27024;54.068;12.116;2023-11-19T15:12:51;18.70;;;2.95;;
583;SDS011;27024;54.068;12.116;2023-11-19T15:15:20;23.67;;;3.33;;
583;SDS011;27024;54.068;12.116;2023-11-19T15:17:50;13.68;;;2.22;;
583;SDS011;27024;54.068;12.116;2023-11-19T15:20:19;15.00;;;1.92;;
583;SDS011;27024;54.068;12.116;2023-11-19T15:22:46;17.92;;;2.40;;
583;SDS011;27024;54.068;12.116;2023-11-19T15:25:13;17.80;;;2.55;;
583;SDS011;27024;54.068;12.116;2023-11-19T15:27:40;20.00;;;3.53;;
583;SDS011;27024;54.068;12.116;2023-11-19T15:30:08;17.85;;;2.33;;